sensor_id;sensor_type;location;lat;lon;timestamp;P1;durP1;ratioP1;P2;durP2;ratioP2
12601;SDS011;30282;16.436;99.370;2023-02-21T00:02:03;126.33;;;80.83;;
12601;SDS011;30282;16.436;99.370;2023-02-21T00:04:49;105.67;;;62.60;;
12601;SDS011;30282;16.436;99.370;2023-02-21T00:07:37;108.13;;;66.37;;
12601;SDS011;30282;16.436;99.370;2023-02-21T00:10:23;97.83;;;64.10;;
12601;SDS011;30282;16.436;99.370;2023-02-21T00:13:09;144.00;;;83.60;;
12601;SDS011;30282;16.436;99.370;2023-02-21T00:15:55;129.93;;;76.40;;
12601;SDS011;30282;16.436;99.370;2023-02-21T00:18:42;148.07;;;79.83;;
12601;SDS011;30282;16.436;99.370;2023-02-21T00:21:28;137.73;;;81.03;;
12601;SDS011;30282;16.436;99.370;2023-02-21T00:24:14;133.50;;;78.20;;
12601;SDS011;30282;16.436;99.370;2023-02-21T00:27:00;151.43;;;80.13;;
12601;SDS011;30282;16.436;99.370;2023-02-21T00:29:46;124.07;;;74.03;;
12601;SDS011;30282;16.436;99.370;2023-02-21T00:32:32;109.43;;;68.43;;
12601;SDS011;30282;16.436;99.370;2023-02-21T00:35:19;100.40;;;63.83;;
12601;SDS011;30282;16.436;99.370;2023-02-21T00:38:07;97.33;;;63.37;;
12601;SDS011;30282;16.436;99.370;2023-02-21T00:40:53;111.73;;;63.17;;
12601;SDS011;30282;16.436;99.370;2023-02-21T00:43:39;108.00;;;71.80;;
12601;SDS011;30282;16.436;99.370;2023-02-21T00:46:24;132.13;;;83.33;;
12601;SDS011;30282;16.436;99.370;2023-02-21T00:49:10;153.57;;;86.60;;
12601;SDS011;30282;16.436;99.370;2023-02-21T00:51:57;128.30;;;74.97;;
12601;SDS011;30282;16.436;99.370;2023-02-21T00:54:43;120.33;;;69.30;;
12601;SDS011;30282;16.436;99.370;2023-02-21T00:57:29;112.57;;;70.30;;
12601;SDS011;30282;16.436;99.370;2023-02-21T01:00:15;116.40;;;68.37;;
12601;SDS011;30282;16.436;99.370;2023-02-21T01:03:02;104.50;;;68.20;;
12601;SDS011;30282;16.436;99.370;2023-02-21T01:05:48;100.47;;;69.10;;
12601;SDS011;30282;16.436;99.370;2023-02-21T01:08:36;93.60;;;65.70;;
12601;SDS011;30282;16.436;99.370;2023-02-21T01:11:25;103.83;;;64.63;;
12601;SDS011;30282;16.436;99.370;2023-02-21T01:14:11;94.37;;;56.40;;
12601;SDS011;30282;16.436;99.370;2023-02-21T01:16:56;91.13;;;60.97;;
12601;SDS011;30282;16.436;99.370;2023-02-21T01:19:42;79.23;;;53.30;;
12601;SDS011;30282;16.436;99.370;2023-02-21T01:22:28;65.63;;;41.30;;
12601;SDS011;30282;16.436;99.370;2023-02-21T01:25:15;45.40;;;29.63;;
12601;SDS011;30282;16.436;99.370;2023-02-21T01:28:01;46.67;;;29.63;;
12601;SDS011;30282;16.436;99.370;2023-02-21T01:30:46;44.47;;;28.97;;
12601;SDS011;30282;16.436;99.370;2023-02-21T01:33:34;43.63;;;28.67;;
12601;SDS011;30282;16.436;99.370;2023-02-21T01:36:20;41.90;;;28.00;;
12601;SDS011;30282;16.436;99.370;2023-02-21T01:39:06;43.80;;;29.70;;
12601;SDS011;30282;16.436;99.370;2023-02-21T01:41:55;38.53;;;28.07;;
12601;SDS011;30282;16.436;99.370;2023-02-21T01:44:41;38.20;;;26.20;;
12601;SDS011;30282;16.436;99.370;2023-02-21T01:47:27;49.00;;;28.17;;
12601;SDS011;30282;16.436;99.370;2023-02-21T01:50:15;48.90;;;31.13;;
12601;SDS011;30282;16.436;99.370;2023-02-21T01:53:06;38.10;;;26.60;;
12601;SDS011;30282;16.436;99.370;2023-02-21T01:55:55;45.33;;;28.93;;
12601;SDS011;30282;16.436;99.370;2023-02-21T01:58:44;40.60;;;26.97;;
12601;SDS011;30282;16.436;99.370;2023-02-21T02:01:33;38.30;;;26.97;;
12601;SDS011;30282;16.436;99.370;2023-02-21T02:04:22;44.50;;;28.03;;
12601;SDS011;30282;16.436;99.370;2023-02-21T02:07:09;41.13;;;28.17;;
12601;SDS011;30282;16.436;99.370;2023-02-21T02:09:54;49.53;;;29.23;;
12601;SDS011;30282;16.436;99.370;2023-02-21T02:12:44;50.20;;;29.10;;
12601;SDS011;30282;16.436;99.370;2023-02-21T02:15:42;46.23;;;28.57;;
12601;SDS011;30282;16.436;99.370;2023-02-21T02:18:23;42.27;;;27.87;;
12601;SDS011;30282;16.436;99.370;2023-02-21T02:21:26;42.17;;;26.47;;
12601;SDS011;30282;16.436;99.370;2023-02-21T02:24:13;40.73;;;26.00;;
12601;SDS011;30282;16.436;99.370;2023-02-21T02:27:19;44.37;;;27.40;;
12601;SDS011;30282;16.436;99.370;2023-02-21T02:30:15;43.33;;;29.70;;
12601;SDS011;30282;16.436;99.370;2023-02-21T02:33:14;48.57;;;26.60;;
12601;SDS011;30282;16.436;99.370;2023-02-21T02:36:06;37.63;;;26.07;;
12601;SDS011;30282;16.436;99.370;2023-02-21T02:38:42;42.03;;;27.10;;
12601;SDS011;30282;16.436;99.370;2023-02-21T02:41:21;47.60;;;27.27;;
12601;SDS011;30282;16.436;99.370;2023-02-21T02:43:56;49.93;;;28.20;;
12601;SDS011;30282;16.436;99.370;2023-02-21T02:46:40;42.90;;;25.90;;
12601;SDS011;30282;16.436;99.370;2023-02-21T02:49:13;42.37;;;27.80;;
12601;SDS011;30282;16.436;99.370;2023-02-21T02:51:47;44.90;;;26.77;;
12601;SDS011;30282;16.436;99.370;2023-02-21T02:54:16;43.27;;;27.43;;
12601;SDS011;30282;16.436;99.370;2023-02-21T02:56:46;36.63;;;26.33;;
12601;SDS011;30282;16.436;99.370;2023-02-21T02:59:16;42.03;;;27.37;;
12601;SDS011;30282;16.436;99.370;2023-02-21T03:01:58;56.13;;;31.90;;
12601;SDS011;30282;16.436;99.370;2023-02-21T03:04:44;46.23;;;27.80;;
12601;SDS011;30282;16.436;99.370;2023-02-21T03:07:38;43.27;;;29.90;;
12601;SDS011;30282;16.436;99.370;2023-02-21T03:10:17;37.90;;;28.60;;
12601;SDS011;30282;16.436;99.370;2023-02-21T03:12:54;41.93;;;28.47;;
12601;SDS011;30282;16.436;99.370;2023-02-21T03:15:31;39.27;;;26.57;;
12601;SDS011;30282;16.436;99.370;2023-02-21T03:18:06;41.40;;;28.77;;
12601;SDS011;30282;16.436;99.370;2023-02-21T03:20:40;44.70;;;31.47;;
12601;SDS011;30282;16.436;99.370;2023-02-21T03:23:13;41.17;;;27.83;;
12601;SDS011;30282;16.436;99.370;2023-02-21T03:25:45;42.13;;;24.63;;
12601;SDS011;30282;16.436;99.370;2023-02-21T03:28:17;41.47;;;28.20;;
12601;SDS011;30282;16.436;99.370;2023-02-21T03:30:47;43.13;;;26.87;;
12601;SDS011;30282;16.436;99.370;2023-02-21T03:33:19;38.37;;;28.03;;
12601;SDS011;30282;16.436;99.370;2023-02-21T03:35:48;37.50;;;25.53;;
12601;SDS011;30282;16.436;99.370;2023-02-21T03:38:19;38.80;;;25.53;;
12601;SDS011;30282;16.436;99.370;2023-02-21T03:40:49;35.50;;;23.40;;
12601;SDS011;30282;16.436;99.370;2023-02-21T03:43:18;36.20;;;26.27;;
12601;SDS011;30282;16.436;99.370;2023-02-21T03:45:47;37.10;;;27.10;;
12601;SDS011;30282;16.436;99.370;2023-02-21T03:48:17;36.87;;;27.20;;
12601;SDS011;30282;16.436;99.370;2023-02-21T03:50:46;48.63;;;28.53;;
12601;SDS011;30282;16.436;99.370;2023-02-21T03:53:15;36.80;;;27.30;;
12601;SDS011;30282;16.436;99.370;2023-02-21T03:55:46;41.93;;;27.67;;
12601;SDS011;30282;16.436;99.370;2023-02-21T03:58:15;33.67;;;24.93;;
12601;SDS011;30282;16.436;99.370;2023-02-21T04:00:44;39.87;;;26.73;;
12601;SDS011;30282;16.436;99.370;2023-02-21T04:03:13;40.23;;;27.40;;
12601;SDS011;30282;16.436;99.370;2023-02-21T04:05:43;34.87;;;25.07;;
12601;SDS011;30282;16.436;99.370;2023-02-21T04:08:12;40.43;;;25.57;;
12601;SDS011;30282;16.436;99.370;2023-02-21T04:10:41;35.13;;;25.27;;
12601;SDS011;30282;16.436;99.370;2023-02-21T04:13:12;33.40;;;22.60;;
12601;SDS011;30282;16.436;99.370;2023-02-21T04:15:41;38.13;;;24.30;;
12601;SDS011;30282;16.436;99.370;2023-02-21T04:18:10;30.83;;;22.90;;
12601;SDS011;30282;16.436;99.370;2023-02-21T04:20:40;30.77;;;23.57;;
12601;SDS011;30282;16.436;99.370;2023-02-21T04:23:10;33.20;;;25.33;;
12601;SDS011;30282;16.436;99.370;2023-02-21T04:25:42;48.70;;;24.57;;
12601;SDS011;30282;16.436;99.370;2023-02-21T04:28:13;38.40;;;22.80;;
12601;SDS011;30282;16.436;99.370;2023-02-21T04:30:42;34.00;;;24.10;;
12601;SDS011;30282;16.436;99.370;2023-02-21T04:33:11;37.77;;;23.07;;
12601;SDS011;30282;16.436;99.370;2023-02-21T04:35:41;28.10;;;23.27;;
12601;SDS011;30282;16.436;99.370;2023-02-21T04:38:10;32.90;;;22.80;;
12601;SDS011;30282;16.436;99.370;2023-02-21T04:40:39;31.70;;;24.23;;
12601;SDS011;30282;16.436;99.370;2023-02-21T04:43:08;33.23;;;25.10;;
12601;SDS011;30282;16.436;99.370;2023-02-21T04:45:39;32.60;;;23.97;;
12601;SDS011;30282;16.436;99.370;2023-02-21T04:48:12;33.33;;;22.70;;
12601;SDS011;30282;16.436;99.370;2023-02-21T04:50:41;31.87;;;22.23;;
12601;SDS011;30282;16.436;99.370;2023-02-21T04:53:10;33.87;;;22.10;;
12601;SDS011;30282;16.436;99.370;2023-02-21T04:55:39;34.90;;;21.60;;
12601;SDS011;30282;16.436;99.370;2023-02-21T04:58:08;33.57;;;24.23;;
12601;SDS011;30282;16.436;99.370;2023-02-21T05:00:40;35.07;;;24.87;;
12601;SDS011;30282;16.436;99.370;2023-02-21T05:03:11;37.33;;;24.63;;
12601;SDS011;30282;16.436;99.370;2023-02-21T05:05:40;31.23;;;23.07;;
12601;SDS011;30282;16.436;99.370;2023-02-21T05:08:10;35.40;;;23.97;;
12601;SDS011;30282;16.436;99.370;2023-02-21T05:10:39;26.30;;;21.50;;
12601;SDS011;30282;16.436;99.370;2023-02-21T05:13:08;32.00;;;22.70;;
12601;SDS011;30282;16.436;99.370;2023-02-21T05:15:37;29.30;;;22.27;;
12601;SDS011;30282;16.436;99.370;2023-02-21T05:18:08;30.27;;;22.37;;
12601;SDS011;30282;16.436;99.370;2023-02-21T05:20:37;38.03;;;25.03;;
12601;SDS011;30282;16.436;99.370;2023-02-21T05:23:07;33.10;;;23.93;;
12601;SDS011;30282;16.436;99.370;2023-02-21T05:25:36;39.13;;;22.33;;
12601;SDS011;30282;16.436;99.370;2023-02-21T05:28:05;38.20;;;22.67;;
12601;SDS011;30282;16.436;99.370;2023-02-21T05:30:35;34.97;;;23.53;;
12601;SDS011;30282;16.436;99.370;2023-02-21T05:33:05;34.17;;;19.73;;
12601;SDS011;30282;16.436;99.370;2023-02-21T05:35:35;36.37;;;20.23;;
12601;SDS011;30282;16.436;99.370;2023-02-21T05:38:04;29.33;;;21.70;;
12601;SDS011;30282;16.436;99.370;2023-02-21T05:40:33;31.57;;;19.93;;
12601;SDS011;30282;16.436;99.370;2023-02-21T05:43:03;30.57;;;20.90;;
12601;SDS011;30282;16.436;99.370;2023-02-21T05:45:32;32.23;;;19.43;;
12601;SDS011;30282;16.436;99.370;2023-02-21T05:48:01;29.50;;;20.50;;
12601;SDS011;30282;16.436;99.370;2023-02-21T05:50:32;31.00;;;20.20;;
12601;SDS011;30282;16.436;99.370;2023-02-21T05:53:04;27.73;;;19.37;;
12601;SDS011;30282;16.436;99.370;2023-02-21T05:55:35;26.17;;;19.70;;
12601;SDS011;30282;16.436;99.370;2023-02-21T05:58:04;26.60;;;19.50;;
12601;SDS011;30282;16.436;99.370;2023-02-21T06:00:36;24.83;;;19.60;;
12601;SDS011;30282;16.436;99.370;2023-02-21T06:03:05;32.17;;;20.33;;
12601;SDS011;30282;16.436;99.370;2023-02-21T06:05:36;32.10;;;19.87;;
12601;SDS011;30282;16.436;99.370;2023-02-21T06:08:06;28.03;;;20.00;;
12601;SDS011;30282;16.436;99.370;2023-02-21T06:10:35;32.97;;;21.43;;
12601;SDS011;30282;16.436;99.370;2023-02-21T06:13:05;27.30;;;19.30;;
12601;SDS011;30282;16.436;99.370;2023-02-21T06:15:34;24.30;;;18.37;;
12601;SDS011;30282;16.436;99.370;2023-02-21T06:18:03;32.23;;;19.80;;
12601;SDS011;30282;16.436;99.370;2023-02-21T06:20:32;25.90;;;20.03;;
12601;SDS011;30282;16.436;99.370;2023-02-21T06:23:03;28.43;;;18.90;;
12601;SDS011;30282;16.436;99.370;2023-02-21T06:25:32;24.77;;;18.90;;
12601;SDS011;30282;16.436;99.370;2023-02-21T06:28:02;37.60;;;20.10;;
12601;SDS011;30282;16.436;99.370;2023-02-21T06:30:31;32.90;;;19.67;;
12601;SDS011;30282;16.436;99.370;2023-02-21T06:33:02;30.37;;;21.60;;
12601;SDS011;30282;16.436;99.370;2023-02-21T06:35:32;24.37;;;18.60;;
12601;SDS011;30282;16.436;99.370;2023-02-21T06:38:01;27.63;;;19.37;;
12601;SDS011;30282;16.436;99.370;2023-02-21T06:40:32;28.83;;;19.17;;
12601;SDS011;30282;16.436;99.370;2023-02-21T06:43:04;30.37;;;19.80;;
12601;SDS011;30282;16.436;99.370;2023-02-21T06:45:33;27.37;;;18.83;;
12601;SDS011;30282;16.436;99.370;2023-02-21T06:48:02;24.00;;;18.17;;
12601;SDS011;30282;16.436;99.370;2023-02-21T06:50:32;25.37;;;19.03;;
12601;SDS011;30282;16.436;99.370;2023-02-21T06:53:01;26.03;;;17.40;;
12601;SDS011;30282;16.436;99.370;2023-02-21T06:55:32;26.40;;;17.63;;
12601;SDS011;30282;16.436;99.370;2023-02-21T06:58:02;27.20;;;19.13;;
12601;SDS011;30282;16.436;99.370;2023-02-21T07:00:31;27.20;;;19.77;;
12601;SDS011;30282;16.436;99.370;2023-02-21T07:03:00;29.80;;;20.00;;
12601;SDS011;30282;16.436;99.370;2023-02-21T07:05:32;23.77;;;17.30;;
12601;SDS011;30282;16.436;99.370;2023-02-21T07:08:03;27.03;;;19.20;;
12601;SDS011;30282;16.436;99.370;2023-02-21T07:10:34;28.33;;;19.47;;
12601;SDS011;30282;16.436;99.370;2023-02-21T07:13:03;30.70;;;18.60;;
12601;SDS011;30282;16.436;99.370;2023-02-21T07:15:32;24.43;;;17.27;;
12601;SDS011;30282;16.436;99.370;2023-02-21T07:18:01;22.83;;;18.33;;
12601;SDS011;30282;16.436;99.370;2023-02-21T07:20:31;21.33;;;16.77;;
12601;SDS011;30282;16.436;99.370;2023-02-21T07:23:00;26.77;;;17.97;;
12601;SDS011;30282;16.436;99.370;2023-02-21T07:25:29;30.23;;;18.00;;
12601;SDS011;30282;16.436;99.370;2023-02-21T07:28:02;22.60;;;17.37;;
12601;SDS011;30282;16.436;99.370;2023-02-21T07:30:35;29.63;;;17.00;;
12601;SDS011;30282;16.436;99.370;2023-02-21T07:33:04;20.80;;;17.03;;
12601;SDS011;30282;16.436;99.370;2023-02-21T07:35:36;22.80;;;17.60;;
12601;SDS011;30282;16.436;99.370;2023-02-21T07:38:05;23.93;;;17.97;;
12601;SDS011;30282;16.436;99.370;2023-02-21T07:40:34;25.37;;;18.67;;
12601;SDS011;30282;16.436;99.370;2023-02-21T07:43:05;28.97;;;18.10;;
12601;SDS011;30282;16.436;99.370;2023-02-21T07:45:34;22.27;;;16.87;;
12601;SDS011;30282;16.436;99.370;2023-02-21T07:48:03;25.43;;;17.53;;
12601;SDS011;30282;16.436;99.370;2023-02-21T07:50:33;24.63;;;16.90;;
12601;SDS011;30282;16.436;99.370;2023-02-21T07:53:02;25.83;;;16.93;;
12601;SDS011;30282;16.436;99.370;2023-02-21T07:55:32;21.53;;;17.57;;
12601;SDS011;30282;16.436;99.370;2023-02-21T07:58:01;23.83;;;17.87;;
12601;SDS011;30282;16.436;99.370;2023-02-21T08:00:32;27.57;;;16.80;;
12601;SDS011;30282;16.436;99.370;2023-02-21T08:03:02;30.37;;;17.07;;
12601;SDS011;30282;16.436;99.370;2023-02-21T08:05:31;23.50;;;16.70;;
12601;SDS011;30282;16.436;99.370;2023-02-21T08:08:00;22.10;;;17.00;;
12601;SDS011;30282;16.436;99.370;2023-02-21T08:10:29;21.73;;;17.40;;
12601;SDS011;30282;16.436;99.370;2023-02-21T08:12:59;22.77;;;17.60;;
12601;SDS011;30282;16.436;99.370;2023-02-21T08:15:28;24.10;;;17.47;;
12601;SDS011;30282;16.436;99.370;2023-02-21T08:17:59;24.60;;;17.40;;
12601;SDS011;30282;16.436;99.370;2023-02-21T08:20:28;25.73;;;17.80;;
12601;SDS011;30282;16.436;99.370;2023-02-21T08:22:57;24.00;;;18.00;;
12601;SDS011;30282;16.436;99.370;2023-02-21T08:25:26;23.43;;;17.70;;
12601;SDS011;30282;16.436;99.370;2023-02-21T08:27:56;26.80;;;18.73;;
12601;SDS011;30282;16.436;99.370;2023-02-21T08:30:25;34.70;;;18.77;;
12601;SDS011;30282;16.436;99.370;2023-02-21T08:32:54;23.07;;;17.17;;
12601;SDS011;30282;16.436;99.370;2023-02-21T08:35:25;34.87;;;18.60;;
12601;SDS011;30282;16.436;99.370;2023-02-21T08:37:54;21.50;;;18.20;;
12601;SDS011;30282;16.436;99.370;2023-02-21T08:40:27;27.07;;;18.00;;
12601;SDS011;30282;16.436;99.370;2023-02-21T08:42:58;31.00;;;18.80;;
12601;SDS011;30282;16.436;99.370;2023-02-21T08:45:28;22.60;;;17.17;;
12601;SDS011;30282;16.436;99.370;2023-02-21T08:47:57;24.57;;;18.03;;
12601;SDS011;30282;16.436;99.370;2023-02-21T08:50:28;23.10;;;17.73;;
12601;SDS011;30282;16.436;99.370;2023-02-21T08:52:58;27.30;;;17.33;;
12601;SDS011;30282;16.436;99.370;2023-02-21T08:55:27;33.40;;;18.07;;
12601;SDS011;30282;16.436;99.370;2023-02-21T08:57:56;22.10;;;17.50;;
12601;SDS011;30282;16.436;99.370;2023-02-21T09:00:26;26.27;;;17.33;;
12601;SDS011;30282;16.436;99.370;2023-02-21T09:02:55;21.27;;;17.00;;
12601;SDS011;30282;16.436;99.370;2023-02-21T09:05:26;21.20;;;16.83;;
12601;SDS011;30282;16.436;99.370;2023-02-21T09:07:58;26.63;;;18.73;;
12601;SDS011;30282;16.436;99.370;2023-02-21T09:10:29;22.03;;;16.37;;
12601;SDS011;30282;16.436;99.370;2023-02-21T09:13:00;21.50;;;17.80;;
12601;SDS011;30282;16.436;99.370;2023-02-21T09:15:29;24.47;;;16.37;;
12601;SDS011;30282;16.436;99.370;2023-02-21T09:17:59;24.00;;;17.77;;
12601;SDS011;30282;16.436;99.370;2023-02-21T09:20:29;19.63;;;16.33;;
12601;SDS011;30282;16.436;99.370;2023-02-21T09:22:59;24.10;;;17.67;;
12601;SDS011;30282;16.436;99.370;2023-02-21T09:25:28;27.20;;;17.97;;
12601;SDS011;30282;16.436;99.370;2023-02-21T09:27:57;26.40;;;18.00;;
12601;SDS011;30282;16.436;99.370;2023-02-21T09:30:26;28.90;;;19.17;;
12601;SDS011;30282;16.436;99.370;2023-02-21T09:32:56;24.83;;;17.10;;
12601;SDS011;30282;16.436;99.370;2023-02-21T09:35:25;24.77;;;16.93;;
12601;SDS011;30282;16.436;99.370;2023-02-21T09:37:57;22.63;;;17.57;;
12601;SDS011;30282;16.436;99.370;2023-02-21T09:40:31;24.43;;;17.60;;
12601;SDS011;30282;16.436;99.370;2023-02-21T09:43:10;23.63;;;17.70;;
12601;SDS011;30282;16.436;99.370;2023-02-21T09:45:41;21.63;;;17.30;;
12601;SDS011;30282;16.436;99.370;2023-02-21T09:48:12;31.83;;;18.87;;
12601;SDS011;30282;16.436;99.370;2023-02-21T09:50:44;26.77;;;19.60;;
12601;SDS011;30282;16.436;99.370;2023-02-21T09:53:18;20.57;;;17.70;;
12601;SDS011;30282;16.436;99.370;2023-02-21T09:55:50;29.67;;;18.10;;
12601;SDS011;30282;16.436;99.370;2023-02-21T09:58:24;25.73;;;17.60;;
12601;SDS011;30282;16.436;99.370;2023-02-21T10:00:55;25.17;;;18.80;;
12601;SDS011;30282;16.436;99.370;2023-02-21T10:03:29;26.93;;;17.00;;
12601;SDS011;30282;16.436;99.370;2023-02-21T10:06:10;24.60;;;19.50;;
12601;SDS011;30282;16.436;99.370;2023-02-21T10:08:51;22.70;;;17.97;;
12601;SDS011;30282;16.436;99.370;2023-02-21T10:11:26;23.73;;;19.00;;
12601;SDS011;30282;16.436;99.370;2023-02-21T10:14:08;26.70;;;19.17;;
12601;SDS011;30282;16.436;99.370;2023-02-21T10:16:46;28.47;;;19.07;;
12601;SDS011;30282;16.436;99.370;2023-02-21T10:19:21;31.77;;;18.97;;
12601;SDS011;30282;16.436;99.370;2023-02-21T10:21:56;30.13;;;19.80;;
12601;SDS011;30282;16.436;99.370;2023-02-21T10:24:29;33.60;;;20.17;;
12601;SDS011;30282;16.436;99.370;2023-02-21T10:26:59;29.43;;;19.00;;
12601;SDS011;30282;16.436;99.370;2023-02-21T10:29:34;32.47;;;18.77;;
12601;SDS011;30282;16.436;99.370;2023-02-21T10:32:08;29.97;;;20.80;;
12601;SDS011;30282;16.436;99.370;2023-02-21T10:34:40;33.63;;;21.10;;
12601;SDS011;30282;16.436;99.370;2023-02-21T10:37:17;34.70;;;20.80;;
12601;SDS011;30282;16.436;99.370;2023-02-21T10:40:03;28.07;;;19.70;;
12601;SDS011;30282;16.436;99.370;2023-02-21T10:42:48;30.70;;;21.03;;
12601;SDS011;30282;16.436;99.370;2023-02-21T10:45:22;34.27;;;20.90;;
12601;SDS011;30282;16.436;99.370;2023-02-21T10:47:59;33.57;;;20.03;;
12601;SDS011;30282;16.436;99.370;2023-02-21T10:50:42;33.33;;;20.97;;
12601;SDS011;30282;16.436;99.370;2023-02-21T10:53:26;31.83;;;21.43;;
12601;SDS011;30282;16.436;99.370;2023-02-21T10:56:23;37.50;;;21.93;;
12601;SDS011;30282;16.436;99.370;2023-02-21T10:58:55;31.47;;;20.73;;
12601;SDS011;30282;16.436;99.370;2023-02-21T11:01:40;34.23;;;21.23;;
12601;SDS011;30282;16.436;99.370;2023-02-21T11:04:22;37.63;;;22.70;;
12601;SDS011;30282;16.436;99.370;2023-02-21T11:06:57;29.37;;;20.67;;
12601;SDS011;30282;16.436;99.370;2023-02-21T11:09:31;26.47;;;19.70;;
12601;SDS011;30282;16.436;99.370;2023-02-21T11:12:05;47.93;;;23.83;;
12601;SDS011;30282;16.436;99.370;2023-02-21T11:14:45;47.80;;;23.57;;
12601;SDS011;30282;16.436;99.370;2023-02-21T11:17:33;59.50;;;29.30;;
12601;SDS011;30282;16.436;99.370;2023-02-21T11:20:04;66.97;;;31.37;;
12601;SDS011;30282;16.436;99.370;2023-02-21T11:22:45;64.73;;;31.30;;
12601;SDS011;30282;16.436;99.370;2023-02-21T11:25:22;58.30;;;28.17;;
12601;SDS011;30282;16.436;99.370;2023-02-21T11:28:05;65.07;;;33.10;;
12601;SDS011;30282;16.436;99.370;2023-02-21T11:30:46;79.33;;;35.10;;
12601;SDS011;30282;16.436;99.370;2023-02-21T11:33:19;91.17;;;37.53;;
12601;SDS011;30282;16.436;99.370;2023-02-21T11:35:49;77.23;;;35.50;;
12601;SDS011;30282;16.436;99.370;2023-02-21T11:38:30;72.80;;;34.43;;
12601;SDS011;30282;16.436;99.370;2023-02-21T11:41:02;87.97;;;36.10;;
12601;SDS011;30282;16.436;99.370;2023-02-21T11:43:46;60.00;;;29.47;;
12601;SDS011;30282;16.436;99.370;2023-02-21T11:46:18;50.40;;;27.47;;
12601;SDS011;30282;16.436;99.370;2023-02-21T11:48:58;44.97;;;26.00;;
12601;SDS011;30282;16.436;99.370;2023-02-21T11:51:35;51.50;;;26.27;;
12601;SDS011;30282;16.436;99.370;2023-02-21T11:54:10;43.03;;;25.73;;
12601;SDS011;30282;16.436;99.370;2023-02-21T11:56:50;42.93;;;25.03;;
12601;SDS011;30282;16.436;99.370;2023-02-21T11:59:35;42.90;;;24.20;;
12601;SDS011;30282;16.436;99.370;2023-02-21T12:02:28;34.53;;;23.50;;
12601;SDS011;30282;16.436;99.370;2023-02-21T12:05:28;33.77;;;22.87;;
12601;SDS011;30282;16.436;99.370;2023-02-21T12:08:27;36.30;;;25.17;;
12601;SDS011;30282;16.436;99.370;2023-02-21T12:11:25;44.10;;;27.70;;
12601;SDS011;30282;16.436;99.370;2023-02-21T12:14:06;85.83;;;40.20;;
12601;SDS011;30282;16.436;99.370;2023-02-21T12:16:59;149.27;;;65.67;;
12601;SDS011;30282;16.436;99.370;2023-02-21T12:19:42;131.50;;;61.60;;
12601;SDS011;30282;16.436;99.370;2023-02-21T12:22:26;69.63;;;35.93;;
12601;SDS011;30282;16.436;99.370;2023-02-21T12:25:12;66.90;;;37.53;;
12601;SDS011;30282;16.436;99.370;2023-02-21T12:27:49;64.50;;;33.27;;
12601;SDS011;30282;16.436;99.370;2023-02-21T12:30:28;67.03;;;34.40;;
12601;SDS011;30282;16.436;99.370;2023-02-21T12:33:13;60.53;;;36.00;;
12601;SDS011;30282;16.436;99.370;2023-02-21T12:35:56;59.93;;;33.63;;
12601;SDS011;30282;16.436;99.370;2023-02-21T12:38:39;41.90;;;26.17;;
12601;SDS011;30282;16.436;99.370;2023-02-21T12:41:22;40.10;;;27.13;;
12601;SDS011;30282;16.436;99.370;2023-02-21T12:44:04;40.80;;;26.53;;
12601;SDS011;30282;16.436;99.370;2023-02-21T12:46:44;38.17;;;27.90;;
12601;SDS011;30282;16.436;99.370;2023-02-21T12:49:21;36.53;;;25.03;;
12601;SDS011;30282;16.436;99.370;2023-02-21T12:51:55;38.07;;;26.30;;
12601;SDS011;30282;16.436;99.370;2023-02-21T12:54:33;44.37;;;28.00;;
12601;SDS011;30282;16.436;99.370;2023-02-21T12:57:11;51.93;;;28.73;;
12601;SDS011;30282;16.436;99.370;2023-02-21T12:59:50;62.07;;;30.13;;
12601;SDS011;30282;16.436;99.370;2023-02-21T13:02:35;60.53;;;27.57;;
12601;SDS011;30282;16.436;99.370;2023-02-21T13:05:20;46.50;;;27.93;;
12601;SDS011;30282;16.436;99.370;2023-02-21T13:07:55;43.83;;;29.60;;
12601;SDS011;30282;16.436;99.370;2023-02-21T13:10:29;60.40;;;32.73;;
12601;SDS011;30282;16.436;99.370;2023-02-21T13:13:03;78.10;;;29.20;;
12601;SDS011;30282;16.436;99.370;2023-02-21T13:15:36;46.03;;;28.63;;
12601;SDS011;30282;16.436;99.370;2023-02-21T13:18:14;43.70;;;27.20;;
12601;SDS011;30282;16.436;99.370;2023-02-21T13:20:52;47.63;;;27.93;;
12601;SDS011;30282;16.436;99.370;2023-02-21T13:26:31;41.50;;;29.53;;
12601;SDS011;30282;16.436;99.370;2023-02-21T13:29:26;44.40;;;28.30;;
12601;SDS011;30282;16.436;99.370;2023-02-21T13:31:58;48.30;;;28.27;;
12601;SDS011;30282;16.436;99.370;2023-02-21T13:34:30;45.57;;;29.17;;
12601;SDS011;30282;16.436;99.370;2023-02-21T13:37:06;47.23;;;30.90;;
12601;SDS011;30282;16.436;99.370;2023-02-21T13:39:43;47.67;;;30.77;;
12601;SDS011;30282;16.436;99.370;2023-02-21T13:42:16;56.63;;;34.17;;
12601;SDS011;30282;16.436;99.370;2023-02-21T13:44:48;50.23;;;34.33;;
12601;SDS011;30282;16.436;99.370;2023-02-21T13:47:23;52.80;;;33.17;;
12601;SDS011;30282;16.436;99.370;2023-02-21T13:49:53;51.70;;;31.50;;
12601;SDS011;30282;16.436;99.370;2023-02-21T13:52:50;51.40;;;31.00;;
12601;SDS011;30282;16.436;99.370;2023-02-21T13:55:31;55.47;;;33.10;;
12601;SDS011;30282;16.436;99.370;2023-02-21T14:01:22;52.43;;;33.03;;
12601;SDS011;30282;16.436;99.370;2023-02-21T14:07:11;58.03;;;39.70;;
12601;SDS011;30282;16.436;99.370;2023-02-21T14:09:46;62.63;;;40.70;;
12601;SDS011;30282;16.436;99.370;2023-02-21T14:12:15;63.23;;;39.87;;
12601;SDS011;30282;16.436;99.370;2023-02-21T14:14:51;76.77;;;44.47;;
12601;SDS011;30282;16.436;99.370;2023-02-21T14:17:32;71.73;;;44.13;;
12601;SDS011;30282;16.436;99.370;2023-02-21T14:20:13;67.13;;;42.47;;
12601;SDS011;30282;16.436;99.370;2023-02-21T14:22:43;51.33;;;38.57;;
12601;SDS011;30282;16.436;99.370;2023-02-21T14:25:17;51.33;;;38.93;;
12601;SDS011;30282;16.436;99.370;2023-02-21T14:27:49;60.43;;;39.63;;
12601;SDS011;30282;16.436;99.370;2023-02-21T14:30:26;57.83;;;37.40;;
12601;SDS011;30282;16.436;99.370;2023-02-21T14:35:53;78.03;;;44.37;;
12601;SDS011;30282;16.436;99.370;2023-02-21T14:38:26;71.10;;;44.17;;
12601;SDS011;30282;16.436;99.370;2023-02-21T14:41:10;71.93;;;42.20;;
12601;SDS011;30282;16.436;99.370;2023-02-21T14:43:52;67.10;;;42.97;;
12601;SDS011;30282;16.436;99.370;2023-02-21T14:46:41;61.23;;;41.90;;
12601;SDS011;30282;16.436;99.370;2023-02-21T14:52:45;64.97;;;42.10;;
12601;SDS011;30282;16.436;99.370;2023-02-21T15:01:54;60.07;;;40.10;;
12601;SDS011;30282;16.436;99.370;2023-02-21T15:04:32;61.43;;;40.70;;
12601;SDS011;30282;16.436;99.370;2023-02-21T15:07:10;58.57;;;40.17;;
12601;SDS011;30282;16.436;99.370;2023-02-21T15:09:47;57.13;;;39.00;;
12601;SDS011;30282;16.436;99.370;2023-02-21T15:12:35;55.17;;;41.60;;
12601;SDS011;30282;16.436;99.370;2023-02-21T15:15:12;59.70;;;41.50;;
12601;SDS011;30282;16.436;99.370;2023-02-21T15:17:46;68.23;;;42.20;;
12601;SDS011;30282;16.436;99.370;2023-02-21T15:20:28;65.43;;;42.23;;
12601;SDS011;30282;16.436;99.370;2023-02-21T15:22:59;70.00;;;46.50;;